sensor_id;sensor_type;location;lat;lon;timestamp;temperature;humidity
21493;DHT22;10908;50.690;4.400;2024-01-15T00:02:20;2.80;81.90
21493;DHT22;10908;50.690;4.400;2024-01-15T00:04:45;2.80;82.10
21493;DHT22;10908;50.690;4.400;2024-01-15T00:07:11;2.80;82.30
21493;DHT22;10908;50.690;4.400;2024-01-15T00:09:37;2.80;82.40
21493;DHT22;10908;50.690;4.400;2024-01-15T00:12:02;2.90;82.40
21493;DHT22;10908;50.690;4.400;2024-01-15T00:14:28;3.00;82.20
21493;DHT22;10908;50.690;4.400;2024-01-15T00:16:54;3.00;82.20
21493;DHT22;10908;50.690;4.400;2024-01-15T00:19:23;2.90;82.30
21493;DHT22;10908;50.690;4.400;2024-01-15T00:21:50;2.90;82.50
21493;DHT22;10908;50.690;4.400;2024-01-15T00:24:16;2.90;82.60
21493;DHT22;10908;50.690;4.400;2024-01-15T00:26:41;2.80;83.00
21493;DHT22;10908;50.690;4.400;2024-01-15T00:29:10;2.80;83.20
21493;DHT22;10908;50.690;4.400;2024-01-15T00:31:36;2.90;83.20
21493;DHT22;10908;50.690;4.400;2024-01-15T00:34:02;2.90;83.20
21493;DHT22;10908;50.690;4.400;2024-01-15T00:36:27;3.00;83.30
21493;DHT22;10908;50.690;4.400;2024-01-15T00:38:54;3.00;83.30
21493;DHT22;10908;50.690;4.400;2024-01-15T00:41:19;3.00;83.40
21493;DHT22;10908;50.690;4.400;2024-01-15T00:43:46;3.00;83.40
21493;DHT22;10908;50.690;4.400;2024-01-15T00:46:11;3.00;83.40
21493;DHT22;10908;50.690;4.400;2024-01-15T00:48:37;3.00;83.60
21493;DHT22;10908;50.690;4.400;2024-01-15T00:51:04;2.90;83.80
21493;DHT22;10908;50.690;4.400;2024-01-15T00:53:30;2.90;83.70
21493;DHT22;10908;50.690;4.400;2024-01-15T00:55:56;2.90;83.60
21493;DHT22;10908;50.690;4.400;2024-01-15T00:58:22;2.80;83.80
21493;DHT22;10908;50.690;4.400;2024-01-15T01:00:47;2.90;83.80
21493;DHT22;10908;50.690;4.400;2024-01-15T01:03:13;2.90;84.10
21493;DHT22;10908;50.690;4.400;2024-01-15T01:05:39;2.90;84.00
21493;DHT22;10908;50.690;4.400;2024-01-15T01:08:05;2.90;84.00
21493;DHT22;10908;50.690;4.400;2024-01-15T01:10:30;3.00;83.80
21493;DHT22;10908;50.690;4.400;2024-01-15T01:12:56;3.00;83.50
21493;DHT22;10908;50.690;4.400;2024-01-15T01:15:22;2.90;83.60
21493;DHT22;10908;50.690;4.400;2024-01-15T01:17:48;3.10;83.90
21493;DHT22;10908;50.690;4.400;2024-01-15T01:20:13;3.10;83.50
21493;DHT22;10908;50.690;4.400;2024-01-15T01:22:41;3.10;83.70
21493;DHT22;10908;50.690;4.400;2024-01-15T01:25:07;3.20;83.70
21493;DHT22;10908;50.690;4.400;2024-01-15T01:27:33;3.20;83.50
21493;DHT22;10908;50.690;4.400;2024-01-15T01:29:59;3.10;83.00
21493;DHT22;10908;50.690;4.400;2024-01-15T01:32:24;3.10;83.30
21493;DHT22;10908;50.690;4.400;2024-01-15T01:34:50;3.20;83.30
21493;DHT22;10908;50.690;4.400;2024-01-15T01:37:16;3.30;83.20
21493;DHT22;10908;50.690;4.400;2024-01-15T01:39:42;3.10;83.50
21493;DHT22;10908;50.690;4.400;2024-01-15T01:42:07;3.10;84.00
21493;DHT22;10908;50.690;4.400;2024-01-15T01:44:33;3.10;84.50
21493;DHT22;10908;50.690;4.400;2024-01-15T01:47:00;3.00;84.80
21493;DHT22;10908;50.690;4.400;2024-01-15T01:49:27;2.90;85.20
21493;DHT22;10908;50.690;4.400;2024-01-15T01:51:53;3.00;85.50
21493;DHT22;10908;50.690;4.400;2024-01-15T01:54:19;3.10;85.40
21493;DHT22;10908;50.690;4.400;2024-01-15T01:56:47;3.10;85.50
21493;DHT22;10908;50.690;4.400;2024-01-15T01:59:13;3.10;85.10
21493;DHT22;10908;50.690;4.400;2024-01-15T02:01:40;3.10;85.00
21493;DHT22;10908;50.690;4.400;2024-01-15T02:04:06;3.30;85.20
21493;DHT22;10908;50.690;4.400;2024-01-15T02:06:31;3.30;84.90
21493;DHT22;10908;50.690;4.400;2024-01-15T02:08:57;3.30;84.80
21493;DHT22;10908;50.690;4.400;2024-01-15T02:11:23;3.20;84.60
21493;DHT22;10908;50.690;4.400;2024-01-15T02:13:49;3.10;84.50
21493;DHT22;10908;50.690;4.400;2024-01-15T02:16:14;3.00;84.80
21493;DHT22;10908;50.690;4.400;2024-01-15T02:18:44;2.90;84.80
21493;DHT22;10908;50.690;4.400;2024-01-15T02:21:10;2.90;84.90
21493;DHT22;10908;50.690;4.400;2024-01-15T02:23:36;3.00;85.10
21493;DHT22;10908;50.690;4.400;2024-01-15T02:26:03;3.00;85.30
21493;DHT22;10908;50.690;4.400;2024-01-15T02:28:29;2.90;85.40
21493;DHT22;10908;50.690;4.400;2024-01-15T02:30:55;2.90;85.40
21493;DHT22;10908;50.690;4.400;2024-01-15T02:33:21;3.00;85.30
21493;DHT22;10908;50.690;4.400;2024-01-15T02:35:46;2.90;85.10
21493;DHT22;10908;50.690;4.400;2024-01-15T02:38:15;2.90;85.30
21493;DHT22;10908;50.690;4.400;2024-01-15T02:40:41;2.90;85.40
21493;DHT22;10908;50.690;4.400;2024-01-15T02:43:07;2.90;85.60
21493;DHT22;10908;50.690;4.400;2024-01-15T02:45:32;2.90;85.50
21493;DHT22;10908;50.690;4.400;2024-01-15T02:47:58;2.90;85.20
21493;DHT22;10908;50.690;4.400;2024-01-15T02:50:24;2.90;85.20
21493;DHT22;10908;50.690;4.400;2024-01-15T02:52:49;3.00;85.10
21493;DHT22;10908;50.690;4.400;2024-01-15T02:55:15;3.10;84.90
21493;DHT22;10908;50.690;4.400;2024-01-15T02:57:41;2.90;84.70
21493;DHT22;10908;50.690;4.400;2024-01-15T03:00:07;2.90;84.80
21493;DHT22;10908;50.690;4.400;2024-01-15T03:02:35;2.90;85.00
21493;DHT22;10908;50.690;4.400;2024-01-15T03:05:01;2.90;84.80
21493;DHT22;10908;50.690;4.400;2024-01-15T03:07:29;2.90;84.70
21493;DHT22;10908;50.690;4.400;2024-01-15T03:09:55;2.90;84.70
21493;DHT22;10908;50.690;4.400;2024-01-15T03:12:21;2.90;84.70
21493;DHT22;10908;50.690;4.400;2024-01-15T03:14:46;2.90;84.60
21493;DHT22;10908;50.690;4.400;2024-01-15T03:17:12;2.90;84.50
21493;DHT22;10908;50.690;4.400;2024-01-15T03:19:38;2.90;84.80
21493;DHT22;10908;50.690;4.400;2024-01-15T03:22:03;2.80;84.70
21493;DHT22;10908;50.690;4.400;2024-01-15T03:24:31;2.80;84.70
21493;DHT22;10908;50.690;4.400;2024-01-15T03:26:57;2.90;84.80
21493;DHT22;10908;50.690;4.400;2024-01-15T03:29:23;2.90;84.80
21493;DHT22;10908;50.690;4.400;2024-01-15T03:31:48;3.10;84.70
21493;DHT22;10908;50.690;4.400;2024-01-15T03:34:14;2.90;84.60
21493;DHT22;10908;50.690;4.400;2024-01-15T03:36:39;3.00;84.60
21493;DHT22;10908;50.690;4.400;2024-01-15T03:39:06;2.90;84.30
21493;DHT22;10908;50.690;4.400;2024-01-15T03:41:33;2.90;84.50
21493;DHT22;10908;50.690;4.400;2024-01-15T03:43:58;2.80;84.60
21493;DHT22;10908;50.690;4.400;2024-01-15T03:46:24;2.80;84.80
21493;DHT22;10908;50.690;4.400;2024-01-15T03:48:50;2.70;84.80
21493;DHT22;10908;50.690;4.400;2024-01-15T03:51:17;2.80;85.00
21493;DHT22;10908;50.690;4.400;2024-01-15T03:53:43;2.90;85.00
21493;DHT22;10908;50.690;4.400;2024-01-15T03:56:08;2.80;84.80
21493;DHT22;10908;50.690;4.400;2024-01-15T03:58:34;2.80;84.90
21493;DHT22;10908;50.690;4.400;2024-01-15T04:01:00;2.80;84.90
21493;DHT22;10908;50.690;4.400;2024-01-15T04:03:25;2.80;84.80
21493;DHT22;10908;50.690;4.400;2024-01-15T04:05:51;2.90;84.90
21493;DHT22;10908;50.690;4.400;2024-01-15T04:08:16;2.90;84.70
21493;DHT22;10908;50.690;4.400;2024-01-15T04:10:42;3.00;84.70
21493;DHT22;10908;50.690;4.400;2024-01-15T04:13:07;3.00;84.50
21493;DHT22;10908;50.690;4.400;2024-01-15T04:15:33;3.10;84.20
21493;DHT22;10908;50.690;4.400;2024-01-15T04:17:59;2.90;84.40
21493;DHT22;10908;50.690;4.400;2024-01-15T04:20:26;3.00;84.60
21493;DHT22;10908;50.690;4.400;2024-01-15T04:22:52;2.90;84.60
21493;DHT22;10908;50.690;4.400;2024-01-15T04:25:17;3.00;84.70
21493;DHT22;10908;50.690;4.400;2024-01-15T04:27:43;2.90;84.70
21493;DHT22;10908;50.690;4.400;2024-01-15T04:30:09;3.00;84.70
21493;DHT22;10908;50.690;4.400;2024-01-15T04:32:35;3.10;84.70
21493;DHT22;10908;50.690;4.400;2024-01-15T04:35:00;3.10;84.50
21493;DHT22;10908;50.690;4.400;2024-01-15T04:37:26;3.10;84.70
21493;DHT22;10908;50.690;4.400;2024-01-15T04:39:51;3.10;84.90
21493;DHT22;10908;50.690;4.400;2024-01-15T04:42:23;3.20;84.80
21493;DHT22;10908;50.690;4.400;2024-01-15T04:44:49;3.20;84.80
21493;DHT22;10908;50.690;4.400;2024-01-15T04:47:14;3.20;84.70
21493;DHT22;10908;50.690;4.400;2024-01-15T04:49:40;3.10;84.70
21493;DHT22;10908;50.690;4.400;2024-01-15T04:52:06;3.20;84.80
21493;DHT22;10908;50.690;4.400;2024-01-15T04:54:31;3.10;84.60
21493;DHT22;10908;50.690;4.400;2024-01-15T04:56:57;3.10;84.70
21493;DHT22;10908;50.690;4.400;2024-01-15T04:59:22;3.10;84.70
21493;DHT22;10908;50.690;4.400;2024-01-15T05:01:48;3.20;84.60
21493;DHT22;10908;50.690;4.400;2024-01-15T05:04:14;3.20;84.50
21493;DHT22;10908;50.690;4.400;2024-01-15T05:06:40;3.20;84.40
21493;DHT22;10908;50.690;4.400;2024-01-15T05:09:06;3.20;84.60
21493;DHT22;10908;50.690;4.400;2024-01-15T05:11:32;3.30;84.60
21493;DHT22;10908;50.690;4.400;2024-01-15T05:13:57;3.40;84.70
21493;DHT22;10908;50.690;4.400;2024-01-15T05:16:23;3.30;84.60
21493;DHT22;10908;50.690;4.400;2024-01-15T05:18:49;3.30;84.60
21493;DHT22;10908;50.690;4.400;2024-01-15T05:21:14;3.40;84.50
21493;DHT22;10908;50.690;4.400;2024-01-15T05:23:40;3.40;84.50
21493;DHT22;10908;50.690;4.400;2024-01-15T05:26:06;3.40;84.40
21493;DHT22;10908;50.690;4.400;2024-01-15T05:28:31;3.40;84.40
21493;DHT22;10908;50.690;4.400;2024-01-15T05:30:57;3.40;84.30
21493;DHT22;10908;50.690;4.400;2024-01-15T05:33:23;3.30;84.70
21493;DHT22;10908;50.690;4.400;2024-01-15T05:35:49;3.30;84.80
21493;DHT22;10908;50.690;4.400;2024-01-15T05:38:16;3.40;84.90
21493;DHT22;10908;50.690;4.400;2024-01-15T05:40:41;3.40;84.80
21493;DHT22;10908;50.690;4.400;2024-01-15T05:43:07;3.30;84.50
21493;DHT22;10908;50.690;4.400;2024-01-15T05:45:34;3.30;84.70
21493;DHT22;10908;50.690;4.400;2024-01-15T05:48:00;3.40;84.70
21493;DHT22;10908;50.690;4.400;2024-01-15T05:50:25;3.30;84.80
21493;DHT22;10908;50.690;4.400;2024-01-15T05:52:51;3.40;84.80
21493;DHT22;10908;50.690;4.400;2024-01-15T05:55:17;3.40;84.50
21493;DHT22;10908;50.690;4.400;2024-01-15T05:57:44;3.40;84.60
21493;DHT22;10908;50.690;4.400;2024-01-15T06:00:10;3.30;84.60
21493;DHT22;10908;50.690;4.400;2024-01-15T06:02:37;3.10;84.60
21493;DHT22;10908;50.690;4.400;2024-01-15T06:05:04;3.20;85.00
21493;DHT22;10908;50.690;4.400;2024-01-15T06:07:29;3.20;85.20
21493;DHT22;10908;50.690;4.400;2024-01-15T06:09:55;3.30;85.30
21493;DHT22;10908;50.690;4.400;2024-01-15T06:12:23;3.30;85.00
21493;DHT22;10908;50.690;4.400;2024-01-15T06:14:49;3.30;84.90
21493;DHT22;10908;50.690;4.400;2024-01-15T06:17:14;3.20;85.00
21493;DHT22;10908;50.690;4.400;2024-01-15T06:19:40;3.30;85.00
21493;DHT22;10908;50.690;4.400;2024-01-15T06:22:05;3.40;84.60
21493;DHT22;10908;50.690;4.400;2024-01-15T06:24:31;3.50;84.40
21493;DHT22;10908;50.690;4.400;2024-01-15T06:26:57;3.50;84.40
21493;DHT22;10908;50.690;4.400;2024-01-15T06:29:26;3.50;83.90
21493;DHT22;10908;50.690;4.400;2024-01-15T06:31:55;3.40;84.10
21493;DHT22;10908;50.690;4.400;2024-01-15T06:34:20;3.30;84.30
21493;DHT22;10908;50.690;4.400;2024-01-15T06:36:46;3.30;84.50
21493;DHT22;10908;50.690;4.400;2024-01-15T06:39:12;3.20;84.50
21493;DHT22;10908;50.690;4.400;2024-01-15T06:41:37;3.10;84.60
21493;DHT22;10908;50.690;4.400;2024-01-15T06:44:11;3.20;84.60
21493;DHT22;10908;50.690;4.400;2024-01-15T06:46:42;3.10;84.60
21493;DHT22;10908;50.690;4.400;2024-01-15T06:49:08;3.00;84.70
21493;DHT22;10908;50.690;4.400;2024-01-15T06:51:33;3.10;84.80
21493;DHT22;10908;50.690;4.400;2024-01-15T06:53:59;3.00;84.80
21493;DHT22;10908;50.690;4.400;2024-01-15T06:56:24;2.90;84.60
21493;DHT22;10908;50.690;4.400;2024-01-15T06:58:50;3.20;84.40
21493;DHT22;10908;50.690;4.400;2024-01-15T07:01:15;3.00;84.20
21493;DHT22;10908;50.690;4.400;2024-01-15T07:03:41;2.90;84.20
21493;DHT22;10908;50.690;4.400;2024-01-15T07:06:07;2.90;84.30
21493;DHT22;10908;50.690;4.400;2024-01-15T07:08:32;2.90;84.20
21493;DHT22;10908;50.690;4.400;2024-01-15T07:10:58;2.80;84.00
21493;DHT22;10908;50.690;4.400;2024-01-15T07:13:23;2.80;83.80
21493;DHT22;10908;50.690;4.400;2024-01-15T07:15:49;2.70;84.00
21493;DHT22;10908;50.690;4.400;2024-01-15T07:18:15;2.60;84.40
21493;DHT22;10908;50.690;4.400;2024-01-15T07:20:41;2.60;84.50
21493;DHT22;10908;50.690;4.400;2024-01-15T07:23:07;2.60;84.60
21493;DHT22;10908;50.690;4.400;2024-01-15T07:25:33;2.70;84.80
21493;DHT22;10908;50.690;4.400;2024-01-15T07:27:58;2.60;84.60
21493;DHT22;10908;50.690;4.400;2024-01-15T07:30:24;2.70;84.70
21493;DHT22;10908;50.690;4.400;2024-01-15T07:32:50;2.70;84.60
21493;DHT22;10908;50.690;4.400;2024-01-15T07:35:16;2.80;84.70
21493;DHT22;10908;50.690;4.400;2024-01-15T07:37:42;2.80;84.70
21493;DHT22;10908;50.690;4.400;2024-01-15T07:40:08;2.80;84.70
21493;DHT22;10908;50.690;4.400;2024-01-15T07:42:34;2.70;84.70
21493;DHT22;10908;50.690;4.400;2024-01-15T07:45:00;2.70;84.80
21493;DHT22;10908;50.690;4.400;2024-01-15T07:47:26;2.80;84.80
21493;DHT22;10908;50.690;4.400;2024-01-15T07:49:53;2.80;84.60
21493;DHT22;10908;50.690;4.400;2024-01-15T07:52:19;2.80;84.50
21493;DHT22;10908;50.690;4.400;2024-01-15T07:54:44;2.80;84.30
21493;DHT22;10908;50.690;4.400;2024-01-15T07:57:10;2.80;84.10
21493;DHT22;10908;50.690;4.400;2024-01-15T07:59:36;2.80;84.00
21493;DHT22;10908;50.690;4.400;2024-01-15T08:02:02;2.70;84.00
21493;DHT22;10908;50.690;4.400;2024-01-15T08:04:28;2.70;84.00
21493;DHT22;10908;50.690;4.400;2024-01-15T08:06:53;2.70;84.20
21493;DHT22;10908;50.690;4.400;2024-01-15T08:09:19;2.70;83.80
21493;DHT22;10908;50.690;4.400;2024-01-15T08:11:45;2.70;84.10
21493;DHT22;10908;50.690;4.400;2024-01-15T08:14:11;2.70;83.90
21493;DHT22;10908;50.690;4.400;2024-01-15T08:16:37;2.70;83.80
21493;DHT22;10908;50.690;4.400;2024-01-15T08:19:03;2.70;83.90
21493;DHT22;10908;50.690;4.400;2024-01-15T08:21:29;2.70;83.70
21493;DHT22;10908;50.690;4.400;2024-01-15T08:23:59;2.60;83.50
21493;DHT22;10908;50.690;4.400;2024-01-15T08:26:28;2.70;83.40
21493;DHT22;10908;50.690;4.400;2024-01-15T08:28:54;2.70;83.20
21493;DHT22;10908;50.690;4.400;2024-01-15T08:31:20;2.80;83.30
21493;DHT22;10908;50.690;4.400;2024-01-15T08:33:46;2.80;83.10
21493;DHT22;10908;50.690;4.400;2024-01-15T08:36:12;2.80;83.00
21493;DHT22;10908;50.690;4.400;2024-01-15T08:38:38;2.90;82.90
21493;DHT22;10908;50.690;4.400;2024-01-15T08:41:04;2.90;82.60
21493;DHT22;10908;50.690;4.400;2024-01-15T08:43:29;2.90;82.70
21493;DHT22;10908;50.690;4.400;2024-01-15T08:45:56;2.70;82.10
21493;DHT22;10908;50.690;4.400;2024-01-15T08:48:22;2.70;82.40
21493;DHT22;10908;50.690;4.400;2024-01-15T08:50:48;2.70;81.90
21493;DHT22;10908;50.690;4.400;2024-01-15T08:53:14;2.60;81.70
21493;DHT22;10908;50.690;4.400;2024-01-15T08:55:40;2.70;81.60
21493;DHT22;10908;50.690;4.400;2024-01-15T08:58:07;2.60;81.60
21493;DHT22;10908;50.690;4.400;2024-01-15T09:00:33;2.70;81.70
21493;DHT22;10908;50.690;4.400;2024-01-15T09:02:59;2.80;82.00
21493;DHT22;10908;50.690;4.400;2024-01-15T09:05:25;2.80;82.00
21493;DHT22;10908;50.690;4.400;2024-01-15T09:07:51;2.80;83.10
21493;DHT22;10908;50.690;4.400;2024-01-15T09:10:20;2.90;83.50
21493;DHT22;10908;50.690;4.400;2024-01-15T09:12:46;2.90;82.90
21493;DHT22;10908;50.690;4.400;2024-01-15T09:15:12;2.90;82.70
21493;DHT22;10908;50.690;4.400;2024-01-15T09:17:38;3.00;82.40
21493;DHT22;10908;50.690;4.400;2024-01-15T09:20:04;3.00;81.80
21493;DHT22;10908;50.690;4.400;2024-01-15T09:22:31;2.90;81.20
21493;DHT22;10908;50.690;4.400;2024-01-15T09:24:57;3.00;81.30
21493;DHT22;10908;50.690;4.400;2024-01-15T09:27:22;2.90;80.60
21493;DHT22;10908;50.690;4.400;2024-01-15T09:29:48;3.00;80.50
21493;DHT22;10908;50.690;4.400;2024-01-15T09:32:14;3.00;80.40
21493;DHT22;10908;50.690;4.400;2024-01-15T09:34:41;3.10;80.30
21493;DHT22;10908;50.690;4.400;2024-01-15T09:37:07;2.90;80.30
21493;DHT22;10908;50.690;4.400;2024-01-15T09:39:32;2.90;80.30
21493;DHT22;10908;50.690;4.400;2024-01-15T09:41:58;3.00;80.30
21493;DHT22;10908;50.690;4.400;2024-01-15T09:44:25;3.00;79.20
21493;DHT22;10908;50.690;4.400;2024-01-15T09:46:52;3.00;79.50
21493;DHT22;10908;50.690;4.400;2024-01-15T09:49:18;3.00;79.30
21493;DHT22;10908;50.690;4.400;2024-01-15T09:51:44;3.00;79.10
21493;DHT22;10908;50.690;4.400;2024-01-15T09:54:10;3.10;79.60
21493;DHT22;10908;50.690;4.400;2024-01-15T09:56:36;3.20;79.40
21493;DHT22;10908;50.690;4.400;2024-01-15T09:59:02;3.40;79.50
21493;DHT22;10908;50.690;4.400;2024-01-15T10:01:31;3.30;78.70
21493;DHT22;10908;50.690;4.400;2024-01-15T10:03:58;3.30;78.20
21493;DHT22;10908;50.690;4.400;2024-01-15T10:06:26;3.30;77.30
21493;DHT22;10908;50.690;4.400;2024-01-15T10:08:54;3.30;77.60
21493;DHT22;10908;50.690;4.400;2024-01-15T10:11:21;3.30;77.90
21493;DHT22;10908;50.690;4.400;2024-01-15T10:13:47;3.40;77.40
21493;DHT22;10908;50.690;4.400;2024-01-15T10:16:16;3.40;77.00
21493;DHT22;10908;50.690;4.400;2024-01-15T10:18:42;3.50;76.90
21493;DHT22;10908;50.690;4.400;2024-01-15T10:21:07;3.50;76.90
21493;DHT22;10908;50.690;4.400;2024-01-15T10:23:33;3.50;76.20
21493;DHT22;10908;50.690;4.400;2024-01-15T10:26:00;3.40;76.50
21493;DHT22;10908;50.690;4.400;2024-01-15T10:28:26;3.50;76.60
21493;DHT22;10908;50.690;4.400;2024-01-15T10:30:55;3.40;76.10
21493;DHT22;10908;50.690;4.400;2024-01-15T10:33:24;3.50;76.50
21493;DHT22;10908;50.690;4.400;2024-01-15T10:35:57;3.50;75.90
21493;DHT22;10908;50.690;4.400;2024-01-15T10:38:24;3.50;75.90
21493;DHT22;10908;50.690;4.400;2024-01-15T10:40:54;3.50;75.70
21493;DHT22;10908;50.690;4.400;2024-01-15T10:43:20;3.30;75.70
21493;DHT22;10908;50.690;4.400;2024-01-15T10:45:47;3.40;76.10
21493;DHT22;10908;50.690;4.400;2024-01-15T10:48:13;3.60;76.60
21493;DHT22;10908;50.690;4.400;2024-01-15T10:50:39;3.70;75.40
21493;DHT22;10908;50.690;4.400;2024-01-15T10:53:05;3.80;74.60
21493;DHT22;10908;50.690;4.400;2024-01-15T10:55:35;3.90;74.80
21493;DHT22;10908;50.690;4.400;2024-01-15T10:58:02;3.90;74.40
21493;DHT22;10908;50.690;4.400;2024-01-15T11:00:29;3.90;74.60
21493;DHT22;10908;50.690;4.400;2024-01-15T11:02:55;3.90;75.20
21493;DHT22;10908;50.690;4.400;2024-01-15T11:05:25;4.00;75.10
21493;DHT22;10908;50.690;4.400;2024-01-15T11:07:54;3.90;74.70
21493;DHT22;10908;50.690;4.400;2024-01-15T11:10:39;3.80;74.00
21493;DHT22;10908;50.690;4.400;2024-01-15T11:13:09;3.80;74.80
21493;DHT22;10908;50.690;4.400;2024-01-15T11:18:23;3.90;74.10
21493;DHT22;10908;50.690;4.400;2024-01-15T11:23:46;4.10;73.90
21493;DHT22;10908;50.690;4.400;2024-01-15T11:29:10;4.10;73.50
21493;DHT22;10908;50.690;4.400;2024-01-15T11:32:03;4.00;73.20
21493;DHT22;10908;50.690;4.400;2024-01-15T11:37:18;4.10;73.30
21493;DHT22;10908;50.690;4.400;2024-01-15T11:39:44;4.00;72.60
21493;DHT22;10908;50.690;4.400;2024-01-15T11:42:11;4.10;72.50
21493;DHT22;10908;50.690;4.400;2024-01-15T11:44:37;4.00;72.00
21493;DHT22;10908;50.690;4.400;2024-01-15T11:47:07;4.10;71.80
21493;DHT22;10908;50.690;4.400;2024-01-15T11:52:05;4.00;71.80
21493;DHT22;10908;50.690;4.400;2024-01-15T11:54:33;4.10;72.40
21493;DHT22;10908;50.690;4.400;2024-01-15T11:57:04;4.00;71.70
21493;DHT22;10908;50.690;4.400;2024-01-15T11:59:33;4.00;71.90
21493;DHT22;10908;50.690;4.400;2024-01-15T12:01:59;3.90;72.00
21493;DHT22;10908;50.690;4.400;2024-01-15T12:04:24;4.00;71.80
21493;DHT22;10908;50.690;4.400;2024-01-15T12:06:50;3.80;71.60
21493;DHT22;10908;50.690;4.400;2024-01-15T12:09:19;3.80;71.70
21493;DHT22;10908;50.690;4.400;2024-01-15T12:11:50;3.80;71.90
21493;DHT22;10908;50.690;4.400;2024-01-15T12:14:16;3.90;72.00
21493;DHT22;10908;50.690;4.400;2024-01-15T12:16:42;3.90;71.40
21493;DHT22;10908;50.690;4.400;2024-01-15T12:19:08;3.70;71.80
21493;DHT22;10908;50.690;4.400;2024-01-15T12:21:33;3.80;72.50
21493;DHT22;10908;50.690;4.400;2024-01-15T12:23:59;3.90;72.10
21493;DHT22;10908;50.690;4.400;2024-01-15T12:26:24;4.00;72.10
21493;DHT22;10908;50.690;4.400;2024-01-15T12:28:50;4.10;72.30
21493;DHT22;10908;50.690;4.400;2024-01-15T12:31:16;4.20;71.90
21493;DHT22;10908;50.690;4.400;2024-01-15T12:33:42;4.20;70.90
21493;DHT22;10908;50.690;4.400;2024-01-15T12:36:08;4.40;70.50
21493;DHT22;10908;50.690;4.400;2024-01-15T12:38:34;4.30;70.00
21493;DHT22;10908;50.690;4.400;2024-01-15T12:41:00;4.30;69.40
21493;DHT22;10908;50.690;4.400;2024-01-15T12:43:26;4.40;70.20
21493;DHT22;10908;50.690;4.400;2024-01-15T12:45:52;4.40;70.10
21493;DHT22;10908;50.690;4.400;2024-01-15T12:48:18;4.50;69.30
21493;DHT22;10908;50.690;4.400;2024-01-15T12:50:43;4.60;69.00
21493;DHT22;10908;50.690;4.400;2024-01-15T12:53:10;4.60;68.80
21493;DHT22;10908;50.690;4.400;2024-01-15T12:55:36;4.70;68.50
21493;DHT22;10908;50.690;4.400;2024-01-15T12:58:02;4.60;68.60
21493;DHT22;10908;50.690;4.400;2024-01-15T13:00:28;4.60;68.40
21493;DHT22;10908;50.690;4.400;2024-01-15T13:02:54;4.60;68.70
21493;DHT22;10908;50.690;4.400;2024-01-15T13:05:20;4.60;69.10
21493;DHT22;10908;50.690;4.400;2024-01-15T13:07:46;4.70;69.00
21493;DHT22;10908;50.690;4.400;2024-01-15T13:10:12;4.80;69.70
21493;DHT22;10908;50.690;4.400;2024-01-15T13:12:38;4.70;69.50
21493;DHT22;10908;50.690;4.400;2024-01-15T13:15:04;4.60;68.90
21493;DHT22;10908;50.690;4.400;2024-01-15T13:17:31;4.50;69.50
21493;DHT22;10908;50.690;4.400;2024-01-15T13:19:57;4.40;69.60
21493;DHT22;10908;50.690;4.400;2024-01-15T13:22:23;4.40;70.00
21493;DHT22;10908;50.690;4.400;2024-01-15T13:24:49;4.40;69.70
21493;DHT22;10908;50.690;4.400;2024-01-15T13:27:15;4.40;70.50
21493;DHT22;10908;50.690;4.400;2024-01-15T13:29:40;4.40;70.40
21493;DHT22;10908;50.690;4.400;2024-01-15T13:32:06;4.40;70.50
21493;DHT22;10908;50.690;4.400;2024-01-15T13:34:33;4.40;70.90
21493;DHT22;10908;50.690;4.400;2024-01-15T13:36:58;4.60;70.90
21493;DHT22;10908;50.690;4.400;2024-01-15T13:39:24;4.60;70.60
21493;DHT22;10908;50.690;4.400;2024-01-15T13:41:50;4.60;70.40
21493;DHT22;10908;50.690;4.400;2024-01-15T13:44:16;4.60;70.00
21493;DHT22;10908;50.690;4.400;2024-01-15T13:46:41;4.60;70.20
21493;DHT22;10908;50.690;4.400;2024-01-15T13:49:07;4.60;70.40
21493;DHT22;10908;50.690;4.400;2024-01-15T13:51:35;4.50;70.40
21493;DHT22;10908;50.690;4.400;2024-01-15T13:54:02;4.40;70.90
21493;DHT22;10908;50.690;4.400;2024-01-15T13:56:29;4.60;70.90
21493;DHT22;10908;50.690;4.400;2024-01-15T13:58:58;4.50;70.10
21493;DHT22;10908;50.690;4.400;2024-01-15T14:01:24;4.50;70.70
21493;DHT22;10908;50.690;4.400;2024-01-15T14:03:50;4.70;71.20
21493;DHT22;10908;50.690;4.400;2024-01-15T14:06:16;4.80;70.90
21493;DHT22;10908;50.690;4.400;2024-01-15T14:08:42;4.70;70.40
21493;DHT22;10908;50.690;4.400;2024-01-15T14:11:08;4.60;70.40
21493;DHT22;10908;50.690;4.400;2024-01-15T14:13:38;4.60;70.30
21493;DHT22;10908;50.690;4.400;2024-01-15T14:16:04;4.50;70.50
21493;DHT22;10908;50.690;4.400;2024-01-15T14:18:31;4.40;71.00
21493;DHT22;10908;50.690;4.400;2024-01-15T14:20:57;4.30;71.60
21493;DHT22;10908;50.690;4.400;2024-01-15T14:23:23;4.30;72.00
21493;DHT22;10908;50.690;4.400;2024-01-15T14:25:49;4.10;72.50
21493;DHT22;10908;50.690;4.400;2024-01-15T14:28:14;3.90;74.30
21493;DHT22;10908;50.690;4.400;2024-01-15T14:30:40;3.70;78.80
21493;DHT22;10908;50.690;4.400;2024-01-15T14:33:06;3.60;81.80
21493;DHT22;10908;50.690;4.400;2024-01-15T14:35:32;3.50;83.20
21493;DHT22;10908;50.690;4.400;2024-01-15T14:37:57;3.40;83.70
21493;DHT22;10908;50.690;4.400;2024-01-15T14:40:25;3.50;84.20
21493;DHT22;10908;50.690;4.400;2024-01-15T14:42:50;3.60;83.90
21493;DHT22;10908;50.690;4.400;2024-01-15T14:45:17;3.60;83.50
21493;DHT22;10908;50.690;4.400;2024-01-15T14:47:42;3.70;83.00
21493;DHT22;10908;50.690;4.400;2024-01-15T14:50:09;3.70;82.70
21493;DHT22;10908;50.690;4.400;2024-01-15T14:52:36;3.80;82.40
21493;DHT22;10908;50.690;4.400;2024-01-15T14:55:02;4.00;82.00
21493;DHT22;10908;50.690;4.400;2024-01-15T14:57:28;3.90;81.40
21493;DHT22;10908;50.690;4.400;2024-01-15T14:59:53;4.10;81.00
21493;DHT22;10908;50.690;4.400;2024-01-15T15:02:19;4.10;80.30
21493;DHT22;10908;50.690;4.400;2024-01-15T15:04:45;4.10;79.60
21493;DHT22;10908;50.690;4.400;2024-01-15T15:07:11;4.00;78.50
21493;DHT22;10908;50.690;4.400;2024-01-15T15:09:37;3.80;78.30
21493;DHT22;10908;50.690;4.400;2024-01-15T15:12:06;3.70;78.30
21493;DHT22;10908;50.690;4.400;2024-01-15T15:14:32;3.50;79.80
21493;DHT22;10908;50.690;4.400;2024-01-15T15:17:04;3.50;82.00
21493;DHT22;10908;50.690;4.400;2024-01-15T15:19:31;3.50;82.80
21493;DHT22;10908;50.690;4.400;2024-01-15T15:21:56;3.40;82.70
21493;DHT22;10908;50.690;4.400;2024-01-15T15:24:23;3.30;83.30
21493;DHT22;10908;50.690;4.400;2024-01-15T15:26:49;3.30;84.00
21493;DHT22;10908;50.690;4.400;2024-01-15T15:29:14;3.10;84.00
21493;DHT22;10908;50.690;4.400;2024-01-15T15:31:42;3.10;84.80
21493;DHT22;10908;50.690;4.400;2024-01-15T15:34:08;3.00;85.00
21493;DHT22;10908;50.690;4.400;2024-01-15T15:36:35;2.90;84.80
21493;DHT22;10908;50.690;4.400;2024-01-15T15:39:00;2.90;84.00
21493;DHT22;10908;50.690;4.400;2024-01-15T15:43:01;2.80;83.70
21493;DHT22;10908;50.690;4.400;2024-01-15T15:45:27;2.80;84.00
21493;DHT22;10908;50.690;4.400;2024-01-15T15:47:53;2.80;84.10
21493;DHT22;10908;50.690;4.400;2024-01-15T15:50:19;2.80;84.20
21493;DHT22;10908;50.690;4.400;2024-01-15T15:52:45;2.90;84.00
21493;DHT22;10908;50.690;4.400;2024-01-15T15:55:10;2.90;83.60